Jefferson, Mississippi
Current Conditions -  °F | °C
As of 1:53 PM on Sunday 25 Jan 2015 (Local Time) from KGWO Reporting Station
Scattered Clouds Scattered Clouds  
Wind Chill: 15°   Ceiling: Unl
Heat Index: 15°   Visibility: 10mi
Dew Point:   Wind: 10mph
Humidity: 51%   Direction: 250°WSW
Pressure: 29.75"   Gusts: NA
Location:  33.5322°N, 89.9872°W
Report Text: KGWO 251953Z AUTO 25009KT 10SM SCT100 15/05 A2975 RMK AO2 SLP073 T01500050
Loading
Personal Weather Stations






























Interactive Weather Map New forecast layout! Learn more

10-Day Weather Forecast

Advertisements
Track Severe Weather on mobile